Time;durP1;ratioP1;P1;durP2;ratioP2;P2;SDS_P1;SDS_P2;PMS_P1;PMS_P2;Temp;Humidity;BMP_temperature;BMP_pressure;BME280_temperature;BME280_humidity;BME280_pressure;Samples;Min_cycle;Max_cycle;Signal;HPM_P1;HPM_P2
2023/04/10 00:00:47;;;;;;;1.50;1.20;;;9.00;98.10;;;;;;5003828;28;20464;-74
2023/04/10 00:03:13;;;;;;;1.50;1.10;;;8.90;98.10;;;;;;4983181;28;20484;-75
2023/04/10 00:05:40;;;;;;;1.50;1.20;;;9.00;97.70;;;;;;4989305;28;20489;-75
2023/04/10 00:08:07;;;;;;;1.50;1.30;;;9.00;98.00;;;;;;4990714;28;20482;-75
2023/04/10 00:10:34;;;;;;;1.50;1.30;;;9.00;98.10;;;;;;5002952;28;20464;-75
2023/04/10 00:13:02;;;;;;;1.50;1.20;;;9.00;98.00;;;;;;4994152;28;20571;-75
2023/04/10 00:15:29;;;;;;;1.50;1.20;;;9.00;98.20;;;;;;5004207;28;20492;-75
2023/04/10 00:17:57;;;;;;;1.50;1.40;;;9.10;98.10;;;;;;5008050;28;20480;-76
2023/04/10 00:20:25;;;;;;;1.50;1.20;;;9.10;98.10;;;;;;5005529;28;20819;-75
2023/04/10 00:22:52;;;;;;;1.50;1.30;;;9.10;98.00;;;;;;5011971;28;20931;-75
2023/04/10 00:25:19;;;;;;;1.50;1.23;;;9.10;97.90;;;;;;5005186;28;20796;-75
2023/04/10 00:27:45;;;;;;;1.50;1.20;;;9.10;97.90;;;;;;5010691;28;20479;-74
2023/04/10 00:30:12;;;;;;;1.47;1.20;;;9.10;98.10;;;;;;5004720;28;20500;-75
2023/04/10 00:32:39;;;;;;;1.50;1.10;;;9.10;97.80;;;;;;5009671;28;20585;-76
2023/04/10 00:35:09;;;;;;;1.47;1.20;;;9.20;98.00;;;;;;5001451;28;20556;-74
2023/04/10 00:37:36;;;;;;;1.50;1.30;;;9.10;97.90;;;;;;4998952;28;20484;-75
2023/04/10 00:40:03;;;;;;;1.50;1.20;;;9.10;98.10;;;;;;5010512;28;20464;-75
2023/04/10 00:42:30;;;;;;;1.83;1.73;;;9.10;97.80;;;;;;4998429;28;20882;-75
2023/04/10 00:44:57;;;;;;;1.43;1.10;;;9.10;98.20;;;;;;5003918;28;20620;-76
2023/04/10 00:47:24;;;;;;;1.50;1.20;;;9.10;98.20;;;;;;5006615;28;20471;-75
2023/04/10 00:49:51;;;;;;;1.50;1.30;;;9.10;98.00;;;;;;4999930;28;20997;-75
2023/04/10 00:52:20;;;;;;;1.50;1.20;;;9.10;98.10;;;;;;4999469;28;20484;-75
2023/04/10 00:54:47;;;;;;;1.50;1.20;;;9.10;98.20;;;;;;5005474;28;20487;-75
2023/04/10 00:57:13;;;;;;;1.43;1.10;;;9.10;98.20;;;;;;5008471;28;20575;-74
2023/04/10 00:59:40;;;;;;;1.50;1.20;;;9.10;98.20;;;;;;5009597;28;20956;-75
2023/04/10 01:02:07;;;;;;;1.50;1.20;;;9.10;98.20;;;;;;5008459;28;21080;-75
2023/04/10 01:04:34;;;;;;;3.80;3.50;;;9.10;98.20;;;;;;5005008;28;20724;-74
2023/04/10 01:07:11;;;;;;;1.57;1.47;;;9.10;98.20;;;;;;5001528;28;20484;-75
2023/04/10 01:09:47;;;;;;;1.50;1.20;;;9.10;98.20;;;;;;5007538;28;20959;-75
2023/04/10 01:12:27;;;;;;;1.80;1.70;;;9.10;98.20;;;;;;5000375;28;20479;-74
2023/04/10 01:15:01;;;;;;;1.77;1.67;;;9.10;98.20;;;;;;5005694;28;20836;-74
2023/04/10 01:17:35;;;;;;;1.50;1.20;;;9.10;98.20;;;;;;5006122;28;20483;-75
2023/04/10 01:20:09;;;;;;;1.50;1.10;;;9.00;98.20;;;;;;5003967;28;20471;-75
2023/04/10 01:22:45;;;;;;;1.50;1.10;;;9.00;98.20;;;;;;5008234;28;20479;-75
2023/04/10 01:25:40;;;;;;;1.50;1.17;;;9.00;98.20;;;;;;5011503;28;21083;-75
2023/04/10 01:28:32;;;;;;;1.50;1.20;;;9.00;98.20;;;;;;5008538;28;20480;-75
2023/04/10 01:31:03;;;;;;;1.50;1.20;;;9.00;98.20;;;;;;5001723;28;20464;-75
2023/04/10 01:33:37;;;;;;;1.50;1.40;;;9.00;98.20;;;;;;5006305;28;20827;-75
2023/04/10 01:36:07;;;;;;;1.50;1.10;;;9.00;98.20;;;;;;4992385;28;21007;-73
2023/04/10 01:38:35;;;;;;;1.50;1.10;;;9.00;98.20;;;;;;5013778;28;20461;-75
2023/04/10 01:41:03;;;;;;;1.50;1.10;;;9.00;98.20;;;;;;4995584;28;20467;-75
2023/04/10 01:43:31;;;;;;;1.47;1.10;;;9.00;98.20;;;;;;5008286;28;20476;-74
2023/04/10 01:46:01;;;;;;;1.50;1.30;;;9.00;98.20;;;;;;4998047;28;20853;-76
2023/04/10 01:48:29;;;;;;;1.50;1.30;;;9.00;98.20;;;;;;5019064;28;20959;-74
2023/04/10 01:50:56;;;;;;;1.50;1.20;;;9.00;98.20;;;;;;4994999;28;20461;-76
2023/04/10 01:53:23;;;;;;;1.50;1.40;;;9.00;98.20;;;;;;5021579;28;20959;-75
2023/04/10 01:55:51;;;;;;;1.50;1.20;;;9.00;98.20;;;;;;4995497;28;20555;-75
2023/04/10 01:58:18;;;;;;;1.50;1.10;;;9.00;98.20;;;;;;5002654;28;20485;-76
2023/04/10 02:00:45;;;;;;;1.50;1.20;;;9.00;98.20;;;;;;5002374;28;20472;-75
2023/04/10 02:03:13;;;;;;;1.40;1.10;;;9.00;98.20;;;;;;4996624;28;20471;-75
2023/04/10 02:05:51;;;;;;;1.47;1.20;;;9.00;98.20;;;;;;5010306;28;20579;-76
2023/04/10 02:08:26;;;;;;;1.50;1.20;;;9.00;98.20;;;;;;4994762;28;20474;-75
2023/04/10 02:10:57;;;;;;;1.43;1.10;;;8.90;98.20;;;;;;4983998;28;20472;-74
2023/04/10 02:13:28;;;;;;;1.50;1.20;;;8.90;98.20;;;;;;5011071;28;20464;-74
2023/04/10 02:15:56;;;;;;;1.50;1.20;;;8.90;98.20;;;;;;4999072;28;20551;-75
2023/04/10 02:18:25;;;;;;;1.43;1.17;;;8.90;98.20;;;;;;5018352;28;20488;-74
2023/04/10 02:20:54;;;;;;;1.50;1.17;;;8.80;98.20;;;;;;4995183;28;20485;-74
2023/04/10 02:23:22;;;;;;;1.50;1.23;;;8.80;98.20;;;;;;5007409;28;20515;-76
2023/04/10 02:25:49;;;;;;;1.50;1.20;;;8.80;98.20;;;;;;4994951;28;20492;-75
2023/04/10 02:28:16;;;;;;;1.50;1.20;;;8.80;98.20;;;;;;5016375;28;20449;-74
2023/04/10 02:30:42;;;;;;;1.50;1.20;;;8.70;98.20;;;;;;5003717;28;20763;-75
2023/04/10 02:33:09;;;;;;;1.50;1.30;;;8.70;98.20;;;;;;5005872;28;21014;-75
2023/04/10 02:35:38;;;;;;;1.47;1.10;;;8.70;98.20;;;;;;5004017;28;20488;-75
2023/04/10 02:38:05;;;;;;;1.50;1.20;;;8.70;98.20;;;;;;4993741;28;20481;-76
2023/04/10 02:40:31;;;;;;;1.47;1.10;;;8.70;98.20;;;;;;5005676;28;20844;-75
2023/04/10 02:42:58;;;;;;;1.50;1.20;;;8.60;98.20;;;;;;4998125;28;20491;-75
2023/04/10 02:45:25;;;;;;;1.50;1.30;;;8.60;98.20;;;;;;5008865;28;20520;-75
2023/04/10 02:47:52;;;;;;;1.50;1.20;;;8.60;98.20;;;;;;5009621;28;20805;-75
2023/04/10 02:50:19;;;;;;;1.50;1.10;;;8.60;98.20;;;;;;5010414;28;20482;-75
2023/04/10 02:52:47;;;;;;;1.50;1.20;;;8.60;98.20;;;;;;5008422;28;20522;-74
2023/04/10 02:55:14;;;;;;;1.47;1.17;;;8.60;98.20;;;;;;5002821;28;20476;-75
2023/04/10 02:57:41;;;;;;;1.50;1.40;;;8.60;98.20;;;;;;5013152;28;20568;-75
2023/04/10 03:00:09;;;;;;;1.50;1.30;;;8.50;98.20;;;;;;5006885;28;20472;-75
2023/04/10 03:02:36;;;;;;;1.50;1.30;;;8.50;98.20;;;;;;5006291;28;20484;-74
2023/04/10 03:05:03;;;;;;;2.00;1.83;;;8.50;98.20;;;;;;5002013;28;20896;-76
2023/04/10 03:07:31;;;;;;;1.50;1.20;;;8.50;98.20;;;;;;5006773;28;21022;-75
2023/04/10 03:09:59;;;;;;;1.50;1.10;;;8.50;98.20;;;;;;5012131;28;20551;-75
2023/04/10 03:12:26;;;;;;;1.50;1.20;;;8.50;98.20;;;;;;5001624;28;20487;-74
2023/04/10 03:14:53;;;;;;;1.57;1.47;;;8.50;98.20;;;;;;5006392;28;20471;-75
2023/04/10 03:17:19;;;;;;;1.50;1.30;;;8.50;98.20;;;;;;5006225;28;21076;-75
2023/04/10 03:19:46;;;;;;;1.50;1.27;;;8.40;98.20;;;;;;5001105;28;20467;-74
2023/04/10 03:22:13;;;;;;;1.50;1.20;;;8.40;98.20;;;;;;5011297;28;20485;-75
2023/04/10 03:24:40;;;;;;;1.50;1.20;;;8.40;98.20;;;;;;5006215;28;20472;-74
2023/04/10 03:27:08;;;;;;;1.50;1.20;;;8.40;98.20;;;;;;5001150;28;20484;-75
2023/04/10 03:29:35;;;;;;;1.50;1.17;;;8.40;98.20;;;;;;5002093;28;20990;-75
2023/04/10 03:32:01;;;;;;;1.50;1.30;;;8.40;98.20;;;;;;5001659;28;20872;-73
2023/04/10 03:34:28;;;;;;;1.50;1.20;;;8.40;98.20;;;;;;5009700;28;20491;-73
2023/04/10 03:37:02;;;;;;;1.60;1.50;;;8.50;98.20;;;;;;4998810;28;20487;-76
2023/04/10 03:39:29;;;;;;;1.50;1.30;;;8.50;98.20;;;;;;5006440;28;20524;-73
2023/04/10 03:41:56;;;;;;;1.50;1.30;;;8.50;98.20;;;;;;4999498;28;21002;-76
2023/04/10 03:44:25;;;;;;;1.47;1.17;;;8.50;98.20;;;;;;5005097;28;20475;-74
2023/04/10 03:46:51;;;;;;;1.50;1.20;;;8.50;98.20;;;;;;4993681;28;21098;-75
2023/04/10 03:49:18;;;;;;;1.50;1.30;;;8.60;98.20;;;;;;5005021;28;20488;-76
2023/04/10 03:51:45;;;;;;;1.50;1.17;;;8.60;98.20;;;;;;4996737;28;20502;-75
2023/04/10 03:54:12;;;;;;;1.50;1.20;;;8.60;98.20;;;;;;5006901;28;20471;-73
2023/04/10 03:56:38;;;;;;;1.50;1.20;;;8.60;98.20;;;;;;4995791;28;20480;-74
2023/04/10 03:59:05;;;;;;;1.50;1.20;;;8.60;98.20;;;;;;5007718;28;20487;-75
2023/04/10 04:01:34;;;;;;;1.50;1.20;;;8.60;98.20;;;;;;4998602;28;20480;-76
2023/04/10 04:04:01;;;;;;;1.50;1.20;;;8.60;98.20;;;;;;5014208;28;20936;-74
2023/04/10 04:06:28;;;;;;;1.50;1.20;;;8.60;98.20;;;;;;5001291;28;20475;-74
2023/04/10 04:08:55;;;;;;;1.50;1.40;;;8.60;98.20;;;;;;5013576;28;20468;-74
2023/04/10 04:11:22;;;;;;;1.50;1.30;;;8.60;98.20;;;;;;4998619;28;20472;-73
2023/04/10 04:13:49;;;;;;;1.50;1.20;;;8.60;98.20;;;;;;5008867;28;20460;-75
2023/04/10 04:16:21;;;;;;;2.43;2.13;;;8.60;98.20;;;;;;4999631;28;20550;-74
2023/04/10 04:18:49;;;;;;;1.50;1.20;;;8.60;98.20;;;;;;5007072;28;20487;-75
2023/04/10 04:21:16;;;;;;;1.50;1.13;;;8.60;98.20;;;;;;5000512;28;20494;-75
2023/04/10 04:23:43;;;;;;;1.50;1.20;;;8.60;98.20;;;;;;5001451;28;20535;-75
2023/04/10 04:26:09;;;;;;;1.50;1.20;;;8.60;98.20;;;;;;4998346;28;20498;-74
2023/04/10 04:28:36;;;;;;;1.50;1.20;;;8.60;98.20;;;;;;5006156;28;20461;-74
2023/04/10 04:31:03;;;;;;;1.50;1.20;;;8.50;98.20;;;;;;4997158;28;20456;-74
2023/04/10 04:33:34;;;;;;;1.50;1.27;;;8.50;98.20;;;;;;5012804;28;20539;-73
2023/04/10 04:36:15;;;;;;;1.50;1.30;;;8.50;98.20;;;;;;4998370;28;20514;-74
2023/04/10 04:38:42;;;;;;;1.50;1.30;;;8.50;98.20;;;;;;5015596;28;20872;-73
2023/04/10 04:41:09;;;;;;;1.53;1.43;;;8.50;98.20;;;;;;4996872;28;20849;-74
2023/04/10 04:43:35;;;;;;;1.50;1.10;;;8.50;98.20;;;;;;5016680;23;20505;-76
2023/04/10 04:46:02;;;;;;;1.50;1.20;;;8.40;98.20;;;;;;4994557;28;20475;-77
2023/04/10 04:48:29;;;;;;;1.50;1.10;;;8.50;98.20;;;;;;4986650;28;20464;-77
2023/04/10 04:50:55;;;;;;;1.50;1.20;;;8.50;98.20;;;;;;4978134;28;20493;-76
2023/04/10 04:53:24;;;;;;;1.50;1.10;;;8.50;98.20;;;;;;4990853;28;20960;-77
2023/04/10 04:55:50;;;;;;;1.50;1.20;;;8.50;98.20;;;;;;4977649;28;20464;-74
2023/04/10 04:58:17;;;;;;;1.50;1.20;;;8.50;98.20;;;;;;4996616;28;20485;-74
2023/04/10 05:00:44;;;;;;;1.50;1.20;;;8.50;98.20;;;;;;4976563;28;20742;-75
2023/04/10 05:03:10;;;;;;;1.50;1.20;;;8.60;98.20;;;;;;4988433;28;20478;-74
2023/04/10 05:05:37;;;;;;;1.50;1.20;;;8.60;98.20;;;;;;4979942;28;20462;-74
2023/04/10 05:08:04;;;;;;;1.47;1.20;;;8.60;98.20;;;;;;4991329;28;20488;-75
2023/04/10 05:10:32;;;;;;;1.50;1.10;;;8.60;98.20;;;;;;4976891;28;20514;-74
2023/04/10 05:12:59;;;;;;;1.50;1.20;;;8.70;98.20;;;;;;4979724;28;20495;-75
2023/04/10 05:15:26;;;;;;;1.50;1.20;;;8.70;98.20;;;;;;5000003;28;20959;-75
2023/04/10 05:17:53;;;;;;;1.50;1.20;;;8.70;98.20;;;;;;4977104;28;20488;-74
2023/04/10 05:20:20;;;;;;;1.50;1.20;;;8.70;98.20;;;;;;4973663;28;20474;-75
2023/04/10 05:22:47;;;;;;;2.53;2.33;;;8.80;98.20;;;;;;4974694;28;20481;-75
2023/04/10 05:25:14;;;;;;;1.73;1.63;;;8.80;98.20;;;;;;4980795;28;20775;-75
2023/04/10 05:27:42;;;;;;;1.50;1.20;;;8.80;98.20;;;;;;4972804;28;20896;-74
2023/04/10 05:30:10;;;;;;;1.50;1.20;;;8.80;98.20;;;;;;4979389;28;20465;-74
2023/04/10 05:32:36;;;;;;;2.03;1.93;;;8.80;98.20;;;;;;4975814;28;20480;-75
2023/04/10 05:35:03;;;;;;;2.70;2.50;;;8.80;98.20;;;;;;4983793;28;20571;-75
2023/04/10 05:37:30;;;;;;;1.50;1.20;;;8.90;98.20;;;;;;4986085;28;20595;-74
2023/04/10 05:39:57;;;;;;;1.47;1.20;;;9.00;98.20;;;;;;4980924;28;20476;-75
2023/04/10 05:42:23;;;;;;;1.50;1.20;;;9.00;98.20;;;;;;4978072;28;21049;-74
2023/04/10 05:44:52;;;;;;;1.43;1.10;;;9.10;98.20;;;;;;5000233;28;20890;-74
2023/04/10 05:47:18;;;;;;;1.50;1.10;;;9.10;98.10;;;;;;4983403;28;21003;-75
2023/04/10 05:49:46;;;;;;;1.47;1.10;;;9.20;97.80;;;;;;4979886;28;20460;-74
2023/04/10 05:52:13;;;;;;;1.50;1.20;;;9.30;97.20;;;;;;4978181;28;20653;-73
2023/04/10 05:54:41;;;;;;;1.50;1.10;;;9.40;96.40;;;;;;5010239;28;20805;-73
2023/04/10 05:57:08;;;;;;;1.50;1.10;;;9.50;96.30;;;;;;5012366;28;20479;-74
2023/04/10 05:59:36;;;;;;;1.50;1.20;;;9.60;96.30;;;;;;5019557;28;20485;-73
2023/04/10 06:02:04;;;;;;;1.50;1.20;;;9.70;96.00;;;;;;5011497;28;20935;-75
2023/04/10 06:04:31;;;;;;;1.43;1.10;;;9.70;95.80;;;;;;5021380;28;20525;-75
2023/04/10 06:06:58;;;;;;;1.50;1.10;;;9.80;95.60;;;;;;4999584;28;20511;-75
2023/04/10 06:09:25;;;;;;;1.50;1.20;;;9.80;95.20;;;;;;5014381;28;20463;-75
2023/04/10 06:11:52;;;;;;;1.50;1.10;;;9.90;94.80;;;;;;5009649;28;20480;-75
2023/04/10 06:14:19;;;;;;;1.50;1.20;;;9.90;94.70;;;;;;5021836;28;20730;-75
2023/04/10 06:16:46;;;;;;;1.50;1.10;;;10.10;95.00;;;;;;5010150;28;20483;-75
2023/04/10 06:19:14;;;;;;;1.50;1.20;;;10.20;94.30;;;;;;5018362;28;20496;-75
2023/04/10 06:21:41;;;;;;;1.50;1.10;;;10.30;94.40;;;;;;5018487;28;20479;-75
2023/04/10 06:24:08;;;;;;;1.47;1.10;;;10.30;93.70;;;;;;5021726;28;20487;-75
2023/04/10 06:26:35;;;;;;;1.50;1.20;;;10.40;94.00;;;;;;5014369;28;21177;-75
2023/04/10 06:29:02;;;;;;;1.50;1.00;;;10.50;93.60;;;;;;5025214;28;20459;-75
2023/04/10 06:31:28;;;;;;;1.50;1.10;;;10.60;93.10;;;;;;5015088;28;20490;-75
2023/04/10 06:33:55;;;;;;;1.50;1.20;;;10.70;92.90;;;;;;5014049;28;20513;-75
2023/04/10 06:36:23;;;;;;;1.50;1.30;;;10.90;92.30;;;;;;5011052;28;20486;-75
2023/04/10 06:38:50;;;;;;;1.50;1.20;;;11.00;91.70;;;;;;5011092;28;20491;-75
2023/04/10 06:41:17;;;;;;;1.50;1.00;;;11.10;91.80;;;;;;5013009;28;20836;-75
2023/04/10 06:43:44;;;;;;;1.50;1.10;;;11.20;90.40;;;;;;5019256;28;20506;-74
2023/04/10 06:46:11;;;;;;;3.97;3.73;;;11.30;90.00;;;;;;5016321;28;20707;-75
2023/04/10 06:48:38;;;;;;;1.50;1.10;;;11.40;89.70;;;;;;5024543;28;20455;-74
2023/04/10 06:51:06;;;;;;;1.50;1.20;;;11.50;89.60;;;;;;5010694;28;20466;-74
2023/04/10 06:53:34;;;;;;;1.50;1.17;;;11.60;89.10;;;;;;5005560;28;20483;-74
2023/04/10 06:56:01;;;;;;;1.47;1.00;;;11.60;88.60;;;;;;5015932;28;20976;-75
2023/04/10 06:58:28;;;;;;;1.50;1.10;;;11.80;88.40;;;;;;5018775;28;20487;-74
2023/04/10 07:00:54;;;;;;;1.83;1.73;;;11.80;87.30;;;;;;5012150;28;20466;-75
2023/04/10 07:03:21;;;;;;;1.50;1.20;;;11.80;87.60;;;;;;5008594;28;20467;-75
2023/04/10 07:05:48;;;;;;;1.50;1.00;;;12.00;87.70;;;;;;5014105;28;20470;-75
2023/04/10 07:08:15;;;;;;;1.50;1.10;;;12.10;86.40;;;;;;5011218;28;20467;-75
2023/04/10 07:10:43;;;;;;;1.50;1.07;;;12.10;86.80;;;;;;5026906;28;20462;-74
2023/04/10 07:13:10;;;;;;;1.83;1.63;;;12.20;85.70;;;;;;5008958;28;20487;-75
2023/04/10 07:15:37;;;;;;;1.47;1.00;;;12.20;85.70;;;;;;5026155;28;20657;-75
2023/04/10 07:18:03;;;;;;;1.50;1.00;;;12.20;85.80;;;;;;5006367;28;20482;-75
2023/04/10 07:20:31;;;;;;;1.50;1.00;;;12.40;86.00;;;;;;5028938;28;20463;-75
2023/04/10 07:22:57;;;;;;;1.50;1.10;;;12.30;85.30;;;;;;5009035;28;20483;-74
2023/04/10 07:25:24;;;;;;;1.50;1.10;;;12.30;85.60;;;;;;5025334;28;20479;-75
2023/04/10 07:27:53;;;;;;;1.50;1.00;;;12.40;84.80;;;;;;5004868;28;20990;-74
2023/04/10 07:30:20;;;;;;;1.50;1.07;;;12.40;84.80;;;;;;5025064;28;20464;-74
2023/04/10 07:32:47;;;;;;;1.50;1.00;;;12.50;84.60;;;;;;5008069;28;20483;-75
2023/04/10 07:35:13;;;;;;;1.50;1.20;;;12.50;84.00;;;;;;5020634;28;20926;-75
2023/04/10 07:37:42;;;;;;;1.50;1.00;;;12.40;84.90;;;;;;5001172;28;20872;-74
2023/04/10 07:40:10;;;;;;;1.50;1.00;;;12.40;84.40;;;;;;5012240;28;21004;-74
2023/04/10 07:42:38;;;;;;;1.50;1.00;;;12.50;84.50;;;;;;5006176;28;20818;-75
2023/04/10 07:45:07;;;;;;;1.50;1.00;;;12.50;84.90;;;;;;5021573;28;20494;-75
2023/04/10 07:47:34;;;;;;;1.50;1.00;;;12.60;84.10;;;;;;4995195;28;20480;-75
2023/04/10 07:50:01;;;;;;;1.50;1.10;;;12.60;83.70;;;;;;5022922;28;20477;-75
2023/04/10 07:52:28;;;;;;;2.00;1.30;;;12.70;83.30;;;;;;5014617;28;20483;-75
2023/04/10 07:54:54;;;;;;;1.50;1.00;;;12.80;83.40;;;;;;5023238;28;20479;-75
2023/04/10 07:57:21;;;;;;;1.50;1.00;;;12.90;83.40;;;;;;5014627;28;20977;-75
2023/04/10 07:59:48;;;;;;;1.50;1.00;;;13.00;83.10;;;;;;5023681;28;20927;-76
2023/04/10 08:02:16;;;;;;;2.90;2.07;;;13.10;81.90;;;;;;5007670;28;20513;-75
2023/04/10 08:04:43;;;;;;;1.50;1.20;;;13.20;81.30;;;;;;5020628;28;21047;-75
2023/04/10 08:07:10;;;;;;;1.50;1.00;;;13.30;81.80;;;;;;5010588;28;20482;-75
2023/04/10 08:09:37;;;;;;;2.80;2.60;;;13.30;81.30;;;;;;5023263;28;20550;-75
2023/04/10 08:12:04;;;;;;;1.50;1.30;;;13.30;81.10;;;;;;5011606;28;20483;-75
2023/04/10 08:14:30;;;;;;;1.50;1.00;;;13.50;81.30;;;;;;5017626;28;20853;-75
2023/04/10 08:16:57;;;;;;;1.50;1.00;;;13.50;80.90;;;;;;5002085;28;20481;-75
2023/04/10 08:19:26;;;;;;;1.50;1.03;;;13.70;80.10;;;;;;5014406;28;20479;-75
2023/04/10 08:21:53;;;;;;;1.50;1.00;;;13.80;80.90;;;;;;5005941;28;21015;-75
2023/04/10 08:24:21;;;;;;;1.47;1.00;;;13.90;80.80;;;;;;5014997;28;20493;-75
2023/04/10 08:26:48;;;;;;;1.47;1.00;;;14.10;80.00;;;;;;5006890;28;20479;-74
2023/04/10 08:29:16;;;;;;;1.40;1.00;;;14.20;80.40;;;;;;5018377;28;20628;-75
2023/04/10 08:31:43;;;;;;;1.47;1.00;;;14.10;79.90;;;;;;5007896;28;20574;-75
2023/04/10 08:34:11;;;;;;;1.47;1.00;;;14.20;79.90;;;;;;5016033;28;20510;-74
2023/04/10 08:36:39;;;;;;;1.47;0.93;;;14.30;79.80;;;;;;5016934;28;20582;-75
2023/04/10 08:39:06;;;;;;;2.13;1.93;;;14.30;78.40;;;;;;5017321;28;20521;-74
2023/04/10 08:41:33;;;;;;;2.73;1.50;;;14.30;77.50;;;;;;5009998;28;20491;-74
2023/04/10 08:44:00;;;;;;;1.60;1.30;;;14.40;78.00;;;;;;5019022;28;20494;-75
2023/04/10 08:46:29;;;;;;;1.47;1.00;;;14.40;77.50;;;;;;5008580;28;20491;-74
2023/04/10 08:49:02;;;;;;;1.60;1.40;;;14.40;77.20;;;;;;5011269;28;20517;-75
2023/04/10 08:51:39;;;;;;;1.50;1.00;;;14.40;77.40;;;;;;5004866;28;20479;-74
2023/04/10 08:54:12;;;;;;;1.50;1.00;;;14.40;77.10;;;;;;5012274;28;20487;-74
2023/04/10 08:56:43;;;;;;;1.50;1.00;;;14.40;76.80;;;;;;5006448;28;20854;-75
2023/04/10 08:59:10;;;;;;;1.47;0.93;;;14.40;76.80;;;;;;5016406;28;20516;-74
2023/04/10 09:01:40;;;;;;;1.70;1.50;;;14.50;76.80;;;;;;5002322;28;20483;-75
2023/04/10 09:04:07;;;;;;;1.50;1.00;;;14.60;76.30;;;;;;5012321;28;20506;-77
2023/04/10 09:06:35;;;;;;;1.50;1.00;;;14.70;76.60;;;;;;5012372;28;21056;-75
2023/04/10 09:09:02;;;;;;;1.43;0.90;;;14.70;76.10;;;;;;5016219;28;20458;-75
2023/04/10 09:11:59;;;;;;;1.67;1.57;;;14.80;75.80;;;;;;5005636;28;20487;-76
2023/04/10 09:14:28;;;;;;;1.50;1.10;;;14.90;76.00;;;;;;5016136;28;20994;-75
2023/04/10 09:17:15;;;;;;;1.50;1.10;;;15.00;75.70;;;;;;5008703;28;20491;-75
2023/04/10 09:19:43;;;;;;;1.43;0.90;;;15.20;74.80;;;;;;5020770;28;20479;-75
2023/04/10 09:22:10;;;;;;;1.50;1.00;;;15.40;74.10;;;;;;5012139;28;20647;-75
2023/04/10 09:24:39;;;;;;;1.40;0.90;;;15.60;74.50;;;;;;5022280;28;20481;-75
2023/04/10 09:27:08;;;;;;;1.47;0.90;;;15.80;73.90;;;;;;5012779;28;20853;-75
2023/04/10 09:29:44;;;;;;;1.63;1.53;;;16.00;74.60;;;;;;5016522;28;20460;-75
2023/04/10 09:32:12;;;;;;;1.50;1.20;;;16.20;73.80;;;;;;5006786;28;20569;-75
2023/04/10 09:34:55;;;;;;;3.30;2.60;;;16.30;73.80;;;;;;5015462;28;21099;-76
2023/04/10 09:37:22;;;;;;;1.47;1.00;;;16.30;73.50;;;;;;5009086;28;20484;-75
2023/04/10 09:39:49;;;;;;;1.50;1.10;;;16.30;73.80;;;;;;5017176;28;20879;-76
2023/04/10 09:42:31;;;;;;;1.50;1.20;;;16.50;73.40;;;;;;5003383;28;20486;-75
2023/04/10 09:44:58;;;;;;;1.50;0.90;;;16.40;72.30;;;;;;5020891;28;20518;-75
2023/04/10 09:47:25;;;;;;;1.43;0.90;;;16.50;72.40;;;;;;5001918;28;20494;-76
2023/04/10 09:49:53;;;;;;;1.47;0.90;;;16.50;71.60;;;;;;5014902;28;20467;-77
2023/04/10 09:52:23;;;;;;;1.50;1.00;;;16.50;72.40;;;;;;4993334;28;20508;-75
2023/04/10 09:54:51;;;;;;;1.50;0.90;;;16.60;71.50;;;;;;5017125;28;20568;-75
2023/04/10 09:57:20;;;;;;;1.40;0.90;;;16.60;70.10;;;;;;5004867;28;20495;-76
2023/04/10 09:59:50;;;;;;;1.43;0.90;;;16.40;70.30;;;;;;5017517;28;20518;-76
2023/04/10 10:02:18;;;;;;;1.83;1.53;;;16.50;71.20;;;;;;4997983;28;20516;-76
2023/04/10 10:04:47;;;;;;;1.40;0.90;;;16.60;70.00;;;;;;5011513;28;20483;-75
2023/04/10 10:07:15;;;;;;;1.43;0.90;;;16.80;71.20;;;;;;4997634;28;20860;-76
2023/04/10 10:09:43;;;;;;;1.50;0.90;;;16.90;69.50;;;;;;5016993;28;21159;-77
2023/04/10 10:12:12;;;;;;;1.47;0.90;;;16.90;69.30;;;;;;5005331;28;20982;-76
2023/04/10 10:14:49;;;;;;;1.47;0.90;;;16.90;70.80;;;;;;5010816;28;20570;-76
2023/04/10 10:17:19;;;;;;;1.47;0.90;;;16.90;70.10;;;;;;5009324;28;20479;-76
2023/04/10 10:19:54;;;;;;;1.50;1.00;;;17.00;70.20;;;;;;5021201;28;20487;-77
2023/04/10 10:22:23;;;;;;;1.43;0.90;;;17.20;69.20;;;;;;5004024;28;20484;-76
2023/04/10 10:24:55;;;;;;;1.50;1.10;;;17.20;69.20;;;;;;5018621;28;20910;-76
2023/04/10 10:27:23;;;;;;;1.43;0.90;;;17.20;69.30;;;;;;5004795;28;20487;-75
2023/04/10 10:29:53;;;;;;;1.43;0.90;;;17.30;70.00;;;;;;5019473;28;20463;-75
2023/04/10 10:32:21;;;;;;;1.40;0.90;;;17.30;69.20;;;;;;4994359;28;20488;-76
2023/04/10 10:34:50;;;;;;;1.50;1.00;;;17.30;70.20;;;;;;5016489;28;20995;-75
2023/04/10 10:37:18;;;;;;;1.40;0.90;;;17.40;69.90;;;;;;4998669;28;20826;-75
2023/04/10 10:39:53;;;;;;;1.50;0.90;;;17.50;69.60;;;;;;5018879;28;20487;-76
2023/04/10 10:42:29;;;;;;;1.43;0.90;;;17.60;68.90;;;;;;5004527;28;20893;-76
2023/04/10 10:45:05;;;;;;;1.50;0.90;;;17.70;68.80;;;;;;5015262;28;20865;-75
2023/04/10 10:47:39;;;;;;;1.47;0.90;;;17.80;69.70;;;;;;4991543;28;20491;-75
2023/04/10 10:50:08;;;;;;;1.47;0.90;;;17.80;68.70;;;;;;5017053;28;20763;-75
2023/04/10 10:52:45;;;;;;;1.43;0.90;;;17.70;68.20;;;;;;4998442;28;20501;-75
2023/04/10 10:55:33;;;;;;;1.43;0.90;;;17.70;68.70;;;;;;5014366;28;20484;-76
2023/04/10 10:58:01;;;;;;;1.47;1.00;;;17.70;68.10;;;;;;4999515;28;21044;-75
2023/04/10 11:01:13;;;;;;;1.80;1.47;;;17.70;69.10;;;;;;5013942;28;20719;-76
2023/04/10 11:03:40;;;;;;;2.33;2.07;;;17.80;69.20;;;;;;5008625;28;20514;-75
2023/04/10 11:06:11;;;;;;;1.47;0.90;;;17.80;68.90;;;;;;5008316;28;21913;-74
2023/04/10 11:08:44;;;;;;;1.47;0.90;;;18.00;69.30;;;;;;5015804;28;20479;-75
2023/04/10 11:11:19;;;;;;;1.40;0.90;;;17.90;68.40;;;;;;5002957;28;20479;-75
2023/04/10 11:14:16;;;;;;;1.43;1.00;;;17.90;69.30;;;;;;5008549;28;20498;-73
2023/04/10 11:16:46;;;;;;;1.40;0.90;;;17.90;69.70;;;;;;5002795;28;20557;-75
2023/04/10 11:19:15;;;;;;;1.40;0.90;;;18.00;67.90;;;;;;5017728;28;20941;-75
2023/04/10 11:22:07;;;;;;;1.47;0.90;;;18.10;68.20;;;;;;5002805;28;20590;-75
2023/04/10 11:24:57;;;;;;;1.43;0.90;;;18.00;68.30;;;;;;5003714;28;21040;-75
2023/04/10 11:27:45;;;;;;;1.43;0.90;;;18.10;68.30;;;;;;5002071;28;20588;-75
2023/04/10 11:30:34;;;;;;;1.50;1.00;;;18.20;69.60;;;;;;5018923;28;20470;-75
2023/04/10 11:33:04;;;;;;;1.43;0.90;;;18.20;67.90;;;;;;4991771;28;20958;-75
2023/04/10 11:35:32;;;;;;;2.80;2.60;;;18.10;68.80;;;;;;5019335;28;20479;-75
2023/04/10 11:38:16;;;;;;;1.60;1.30;;;18.20;70.00;;;;;;5008579;28;21024;-75
2023/04/10 11:41:03;;;;;;;1.47;0.90;;;18.10;68.40;;;;;;5017178;28;20491;-75
2023/04/10 11:43:31;;;;;;;1.43;0.90;;;18.00;68.90;;;;;;4988100;28;20480;-75
2023/04/10 11:46:06;;;;;;;1.43;0.90;;;17.90;67.90;;;;;;5007014;28;20486;-75
2023/04/10 11:48:35;;;;;;;1.40;0.90;;;17.70;67.80;;;;;;5005900;28;20467;-75
2023/04/10 11:51:10;;;;;;;1.43;0.90;;;17.60;69.80;;;;;;5006731;28;20463;-75
2023/04/10 11:53:37;;;;;;;1.47;0.90;;;17.60;69.60;;;;;;5007234;28;20490;-76
2023/04/10 11:56:06;;;;;;;1.43;0.90;;;17.60;69.20;;;;;;5004495;28;20467;-75
2023/04/10 11:58:33;;;;;;;1.43;0.90;;;17.60;69.30;;;;;;5005647;28;20576;-75
2023/04/10 12:01:01;;;;;;;1.47;1.00;;;17.60;69.90;;;;;;5005170;28;20754;-76
2023/04/10 12:03:38;;;;;;;1.50;1.23;;;17.70;69.80;;;;;;5013852;28;20468;-75
2023/04/10 12:06:07;;;;;;;1.43;0.90;;;17.80;69.20;;;;;;5006707;28;20466;-75
2023/04/10 12:08:36;;;;;;;1.43;0.90;;;17.80;69.00;;;;;;5012405;28;21004;-75
2023/04/10 12:11:03;;;;;;;1.43;0.90;;;17.70;68.60;;;;;;5000615;28;20452;-75
2023/04/10 12:13:31;;;;;;;1.40;0.90;;;17.70;68.90;;;;;;5012558;28;20464;-75
2023/04/10 12:16:01;;;;;;;1.43;0.90;;;17.70;68.90;;;;;;5003391;28;20464;-76
2023/04/10 12:18:29;;;;;;;1.43;0.90;;;17.70;69.30;;;;;;5006005;28;20471;-75
2023/04/10 12:21:04;;;;;;;1.47;1.00;;;17.80;69.90;;;;;;5009417;28;20495;-75
2023/04/10 12:23:31;;;;;;;1.43;0.90;;;17.90;69.80;;;;;;5011805;28;20485;-78
2023/04/10 12:26:15;;;;;;;1.57;1.07;;;18.00;69.90;;;;;;5004765;28;21001;-77
2023/04/10 12:28:50;;;;;;;1.43;0.90;;;18.10;68.90;;;;;;5014749;28;20474;-77
2023/04/10 12:31:20;;;;;;;1.40;0.90;;;18.10;68.70;;;;;;5003647;28;20486;-77
2023/04/10 12:33:57;;;;;;;1.47;0.90;;;18.10;69.30;;;;;;5017108;28;20479;-77
2023/04/10 12:39:23;;;;;;;1.47;0.90;;;18.30;69.50;;;;;;5017476;28;20465;-76
2023/04/10 12:41:50;;;;;;;1.43;0.90;;;18.40;68.90;;;;;;5000369;28;21001;-76
2023/04/10 12:44:19;;;;;;;1.40;0.90;;;18.60;69.20;;;;;;5012924;28;20491;-76
2023/04/10 12:47:01;;;;;;;1.43;0.90;;;18.80;68.70;;;;;;5002372;28;20484;-76
2023/04/10 12:49:28;;;;;;;1.43;0.90;;;19.00;67.30;;;;;;5009158;28;20467;-76
2023/04/10 12:51:56;;;;;;;1.47;0.90;;;19.20;67.70;;;;;;4993083;28;20520;-76
2023/04/10 12:54:32;;;;;;;1.47;0.90;;;19.40;67.20;;;;;;5009945;28;20556;-76
2023/04/10 12:57:02;;;;;;;1.43;0.90;;;19.60;66.70;;;;;;5009726;28;21029;-75
2023/04/10 12:59:33;;;;;;;1.50;0.90;;;19.60;64.90;;;;;;5020207;28;20485;-75
2023/04/10 13:02:01;;;;;;;1.40;0.87;;;19.70;65.10;;;;;;5011283;28;20483;-76
2023/04/10 13:04:36;;;;;;;1.70;1.40;;;19.80;64.40;;;;;;5020742;28;20861;-77
2023/04/10 13:07:05;;;;;;;1.43;0.90;;;19.80;64.20;;;;;;5004373;28;20576;-76